Time;durP1;ratioP1;P1;durP2;ratioP2;P2;SDS_P1;SDS_P2;PMS_P1;PMS_P2;Temp;Humidity;BMP_temperature;BMP_pressure;BME280_temperature;BME280_humidity;BME280_pressure;Samples;Min_cycle;Max_cycle;Signal;HPM_P1;HPM_P2
2022/07/19 00:00:14;;;;;;;8.70;3.40;;;;;;;20.21;60.03;100949.06;104308;1279;106010;-72
2022/07/19 00:03:01;;;;;;;8.70;3.60;;;;;;;20.26;60.10;100947.91;104233;1279;138486;-72
2022/07/19 00:05:29;;;;;;;7.80;3.60;;;;;;;20.31;59.90;100945.29;104253;1279;109208;-72
2022/07/19 00:07:57;;;;;;;7.60;3.60;;;;;;;20.27;60.12;100948.08;104115;1279;137733;-72
2022/07/19 00:10:25;;;;;;;8.60;3.80;;;;;;;20.27;59.93;100948.02;104259;1278;94725;-72
2022/07/19 00:12:53;;;;;;;10.00;3.80;;;;;;;20.27;59.92;100948.77;104186;1277;107189;-72
2022/07/19 00:15:21;;;;;;;9.20;3.70;;;;;;;20.17;60.26;100945.88;104214;1277;141400;-71
2022/07/19 00:17:49;;;;;;;8.40;3.70;;;;;;;20.08;60.39;100947.16;104215;1278;108222;-72
2022/07/19 00:20:21;;;;;;;7.80;3.30;;;;;;;20.08;60.50;100942.64;104218;1276;138766;-72
2022/07/19 00:22:49;;;;;;;8.50;3.90;;;;;;;20.12;60.75;100944.39;105487;1279;94227;-72
2022/07/19 00:25:18;;;;;;;7.70;3.50;;;;;;;20.14;60.92;100942.27;104211;1278;106971;-71
2022/07/19 00:27:46;;;;;;;8.80;3.70;;;;;;;20.14;60.77;100940.48;104096;1278;137481;-72
2022/07/19 00:30:15;;;;;;;8.10;3.40;;;;;;;20.14;61.28;100941.02;104222;1278;108551;-72
2022/07/19 00:32:43;;;;;;;7.80;3.80;;;;;;;20.16;61.25;100940.72;104146;1277;139054;-72
2022/07/19 00:35:11;;;;;;;8.70;3.70;;;;;;;20.23;61.08;100939.96;104288;1277;95082;-72
2022/07/19 00:37:40;;;;;;;7.30;3.70;;;;;;;20.23;61.24;100942.66;104247;1278;107103;-72
2022/07/19 00:40:23;;;;;;;7.80;3.80;;;;;;;20.20;61.04;100938.84;104255;1278;98910;-72
2022/07/19 00:42:51;;;;;;;7.20;3.40;;;;;;;20.22;61.17;100935.85;104204;1277;108800;-72
2022/07/19 00:45:19;;;;;;;8.60;4.00;;;;;;;20.22;61.19;100935.89;104202;1277;139609;-71
2022/07/19 00:47:48;;;;;;;7.70;3.80;;;;;;;20.24;61.34;100938.86;104221;1277;94773;-72
2022/07/19 00:50:17;;;;;;;7.90;3.90;;;;;;;20.24;61.42;100939.00;104696;1278;139220;-72
2022/07/19 00:52:49;;;;;;;10.10;4.00;;;;;;;20.25;61.59;100935.34;104176;1278;99468;-72
2022/07/19 00:55:21;;;;;;;7.50;3.50;;;;;;;20.19;61.76;100933.30;104204;1278;108887;-72
2022/07/19 00:57:50;;;;;;;8.20;3.70;;;;;;;20.15;61.72;100928.50;104082;1277;138166;-72
2022/07/19 01:00:18;;;;;;;8.30;3.90;;;;;;;20.14;61.96;100930.94;104208;1278;94346;-72
2022/07/19 01:02:46;;;;;;;7.00;3.60;;;;;;;20.17;61.94;100929.11;104199;1277;138346;-72
2022/07/19 01:05:14;;;;;;;10.00;3.70;;;;;;;20.20;62.10;100929.67;104243;1280;98911;-71
2022/07/19 01:07:42;;;;;;;9.50;3.40;;;;;;;20.23;61.81;100928.06;104222;1278;139731;-71
2022/07/19 01:10:13;;;;;;;8.20;3.80;;;;;;;20.26;61.80;100928.21;104276;1277;94290;-72
2022/07/19 01:12:42;;;;;;;8.70;3.60;;;;;;;20.28;61.98;100928.88;104494;1277;94319;-71
2022/07/19 01:15:25;;;;;;;7.80;3.60;;;;;;;20.28;62.10;100928.16;104137;1277;138199;-71
2022/07/19 01:17:53;;;;;;;8.30;3.60;;;;;;;20.28;62.29;100923.41;104229;1277;99458;-72
2022/07/19 01:20:22;;;;;;;7.20;3.40;;;;;;;20.25;62.37;100918.41;104069;1277;138666;-72
2022/07/19 01:22:57;;;;;;;8.10;3.50;;;;;;;20.25;62.26;100920.93;104201;1278;95761;-72
2022/07/19 01:25:31;;;;;;;8.10;3.80;;;;;;;20.27;62.46;100918.84;104349;1277;94293;-71
2022/07/19 01:27:59;;;;;;;9.50;3.60;;;;;;;20.21;62.66;100915.01;104199;1277;137976;-71
2022/07/19 01:30:27;;;;;;;8.80;3.70;;;;;;;20.19;62.62;100916.73;104227;1278;99548;-72
2022/07/19 01:32:56;;;;;;;7.80;3.20;;;;;;;20.16;62.93;100919.05;104199;1277;138456;-71
2022/07/19 01:35:25;;;;;;;9.00;3.70;;;;;;;20.17;62.84;100916.50;104332;1277;94783;-71
2022/07/19 01:37:53;;;;;;;8.40;3.60;;;;;;;20.16;62.87;100913.52;104164;1278;140817;-72
2022/07/19 01:40:22;;;;;;;8.80;3.70;;;;;;;20.16;63.01;100913.85;104244;1277;107965;-71
2022/07/19 01:42:50;;;;;;;7.10;3.60;;;;;;;20.17;62.72;100913.63;104589;1277;99516;-72
2022/07/19 01:45:19;;;;;;;8.50;3.60;;;;;;;20.17;63.05;100916.33;104030;1278;138116;-71
2022/07/19 01:47:47;;;;;;;9.20;3.90;;;;;;;20.16;62.95;100913.82;104205;1277;94759;-72
2022/07/19 01:50:17;;;;;;;8.80;3.70;;;;;;;20.15;63.12;100916.26;104140;1278;139209;-72
2022/07/19 01:52:45;;;;;;;7.40;3.60;;;;;;;20.12;62.98;100920.73;104279;1278;108516;-72
2022/07/19 01:55:19;;;;;;;10.00;3.80;;;;;;;20.10;63.06;100920.69;104243;1278;98577;-72
2022/07/19 01:57:51;;;;;;;8.00;3.70;;;;;;;20.11;62.93;100921.36;104279;1278;138435;-72
2022/07/19 02:00:19;;;;;;;8.60;3.70;;;;;;;20.10;62.88;100915.98;104235;1277;94780;-71
2022/07/19 02:02:47;;;;;;;7.60;3.30;;;;;;;20.06;63.05;100916.05;104156;1280;138500;-72
2022/07/19 02:05:15;;;;;;;7.60;4.00;;;;;;;19.97;63.59;100917.85;104232;1278;108875;-71
2022/07/19 02:07:47;;;;;;;7.90;3.30;;;;;;;19.97;63.54;100918.19;104141;1278;138037;-72
2022/07/19 02:10:17;;;;;;;9.30;4.00;;;;;;;19.99;63.16;100919.89;104665;1277;109155;-72
2022/07/19 02:12:45;;;;;;;6.40;3.70;;;;;;;20.00;62.93;100921.11;104205;1277;95074;-73
2022/07/19 02:15:14;;;;;;;7.70;3.90;;;;;;;20.02;63.01;100917.75;104152;1278;138005;-71
2022/07/19 02:17:41;;;;;;;8.60;3.80;;;;;;;19.99;63.01;100913.95;104203;1278;108474;-72
2022/07/19 02:20:10;;;;;;;7.70;3.70;;;;;;;19.94;63.11;100915.47;104156;1277;138279;-71
2022/07/19 02:22:38;;;;;;;8.40;4.20;;;;;;;19.93;63.50;100913.22;104257;1278;108181;-72
2022/07/19 02:25:07;;;;;;;8.40;3.70;;;;;;;19.95;63.88;100912.70;104206;1277;94872;-73
2022/07/19 02:27:35;;;;;;;7.90;3.90;;;;;;;19.84;64.64;100908.67;104235;1278;138586;-73
2022/07/19 02:30:06;;;;;;;9.00;3.90;;;;;;;19.78;64.90;100905.73;104230;1280;108660;-73
2022/07/19 02:32:35;;;;;;;8.70;3.80;;;;;;;19.85;64.58;100907.01;104287;1277;139386;-72
2022/07/19 02:35:05;;;;;;;9.90;4.30;;;;;;;19.93;64.08;100906.36;104227;1277;109087;-72
2022/07/19 02:37:33;;;;;;;8.00;4.20;;;;;;;19.99;63.72;100909.61;104490;1277;94956;-72
2022/07/19 02:40:01;;;;;;;8.80;3.90;;;;;;;19.90;63.45;100904.38;104121;1278;138221;-72
2022/07/19 02:42:29;;;;;;;8.80;4.00;;;;;;;19.83;63.79;100906.04;104218;1278;105936;-72
2022/07/19 02:44:57;;;;;;;8.10;3.80;;;;;;;19.84;64.08;100910.84;104138;1276;138668;-72
2022/07/19 02:47:25;;;;;;;9.20;3.90;;;;;;;19.85;64.20;100908.94;104244;1278;108798;-72
2022/07/19 02:49:53;;;;;;;8.00;3.80;;;;;;;19.88;63.87;100907.87;104117;1278;139278;-72
2022/07/19 02:52:21;;;;;;;9.10;4.30;;;;;;;19.85;64.43;100907.19;104279;1277;94363;-72
2022/07/19 02:54:49;;;;;;;8.10;4.00;;;;;;;19.72;64.53;100901.92;104248;1277;108539;-72
2022/07/19 02:57:17;;;;;;;9.10;4.20;;;;;;;19.69;64.58;100901.73;104202;1277;138875;-72
2022/07/19 02:59:45;;;;;;;7.90;3.80;;;;;;;19.76;64.51;100903.33;104234;1277;108332;-72
2022/07/19 03:02:12;;;;;;;7.50;4.10;;;;;;;19.80;64.12;100903.45;104161;1278;139156;-70
2022/07/19 03:04:40;;;;;;;8.40;4.10;;;;;;;19.81;63.84;100900.52;104285;1277;94423;-73
2022/07/19 03:07:09;;;;;;;8.40;4.40;;;;;;;19.69;63.49;100901.73;104277;1277;108330;-72
2022/07/19 03:09:36;;;;;;;7.80;4.20;;;;;;;19.67;63.40;100902.94;104179;1277;137908;-72
2022/07/19 03:12:05;;;;;;;9.10;4.40;;;;;;;19.72;62.95;100903.73;104309;1277;108965;-72
2022/07/19 03:14:33;;;;;;;8.30;4.40;;;;;;;19.72;63.05;100909.67;104228;1278;138855;-73
2022/07/19 03:17:01;;;;;;;8.50;4.10;;;;;;;19.74;62.80;100916.24;104320;1277;94754;-72
2022/07/19 03:19:29;;;;;;;7.40;4.00;;;;;;;19.72;63.19;100915.62;104341;1277;108499;-72
2022/07/19 03:21:57;;;;;;;8.50;4.30;;;;;;;19.74;63.09;100918.19;104218;1277;138019;-73
2022/07/19 03:24:25;;;;;;;8.10;4.10;;;;;;;19.71;63.25;100920.17;104250;1277;109631;-72
2022/07/19 03:26:53;;;;;;;8.30;4.40;;;;;;;19.70;63.78;100918.21;104210;1277;139841;-72
2022/07/19 03:29:22;;;;;;;7.40;4.00;;;;;;;19.66;63.59;100922.77;104330;1277;94444;-71
2022/07/19 03:31:58;;;;;;;8.00;4.00;;;;;;;19.74;64.01;100927.39;104143;1277;138808;-71
2022/07/19 03:34:28;;;;;;;8.10;4.40;;;;;;;19.74;63.95;100927.05;104467;1277;99500;-72
2022/07/19 03:36:56;;;;;;;9.60;4.40;;;;;;;19.69;63.91;100925.68;104694;1277;108884;-71
2022/07/19 03:39:24;;;;;;;9.80;4.00;;;;;;;19.70;64.14;100927.76;104234;1278;138882;-72
2022/07/19 03:41:52;;;;;;;7.80;4.60;;;;;;;19.76;64.09;100926.55;104341;1277;94824;-72
2022/07/19 03:44:27;;;;;;;8.40;4.10;;;;;;;19.86;64.23;100926.42;104264;1277;139019;-72
2022/07/19 03:46:55;;;;;;;9.10;3.90;;;;;;;19.96;63.88;100928.70;104294;1277;99370;-72
2022/07/19 03:49:23;;;;;;;9.30;4.30;;;;;;;20.02;64.13;100928.36;104269;1277;109020;-73
2022/07/19 03:51:51;;;;;;;8.90;4.60;;;;;;;19.97;64.37;100925.77;104090;1278;138454;-72
2022/07/19 03:54:19;;;;;;;9.70;4.40;;;;;;;20.04;63.31;100928.62;104280;1278;94631;-72
2022/07/19 03:56:47;;;;;;;8.50;4.40;;;;;;;20.13;63.12;100926.09;104189;1277;138493;-72
2022/07/19 03:59:16;;;;;;;7.50;4.20;;;;;;;20.12;63.54;100920.39;104225;1277;99359;-71
2022/07/19 04:01:43;;;;;;;7.90;4.20;;;;;;;20.08;63.29;100922.29;104134;1277;137909;-73
2022/07/19 04:04:11;;;;;;;7.90;4.10;;;;;;;20.07;63.21;100920.84;104256;1277;94699;-71
2022/07/19 04:06:39;;;;;;;8.10;4.20;;;;;;;20.08;62.91;100921.02;104234;1277;94327;-72
2022/07/19 04:09:08;;;;;;;11.30;4.60;;;;;;;20.08;62.55;100915.97;104197;1277;138796;-71
2022/07/19 04:11:36;;;;;;;9.20;4.40;;;;;;;20.06;61.99;100912.84;104293;1277;99898;-73
2022/07/19 04:14:04;;;;;;;8.80;4.60;;;;;;;20.11;61.49;100914.31;104224;1277;138169;-71
2022/07/19 04:16:33;;;;;;;8.90;4.60;;;;;;;20.20;60.77;100912.73;104145;1279;94284;-72
2022/07/19 04:19:01;;;;;;;8.50;4.40;;;;;;;20.25;60.71;100918.19;104311;1278;94322;-71
2022/07/19 04:21:29;;;;;;;10.40;4.70;;;;;;;20.22;61.05;100915.30;104178;1277;138283;-72
2022/07/19 04:23:57;;;;;;;9.00;4.30;;;;;;;20.19;61.37;100909.31;104270;1277;99616;-73
2022/07/19 04:26:25;;;;;;;7.80;4.20;;;;;;;20.22;60.79;100905.39;104180;1277;138652;-73
2022/07/19 04:28:53;;;;;;;10.80;4.50;;;;;;;20.29;59.90;100904.11;104355;1277;94356;-73
2022/07/19 04:31:21;;;;;;;9.10;4.70;;;;;;;20.35;59.87;100902.84;104269;1277;94732;-72
2022/07/19 04:33:49;;;;;;;8.00;4.40;;;;;;;20.39;59.36;100904.05;104180;1277;137794;-73
2022/07/19 04:36:17;;;;;;;7.60;4.50;;;;;;;20.46;59.38;100907.41;104301;1278;99532;-73
2022/07/19 04:38:45;;;;;;;9.80;4.30;;;;;;;20.46;59.08;100908.66;104166;1277;138350;-71
2022/07/19 04:41:13;;;;;;;7.80;4.00;;;;;;;20.46;59.38;100907.59;104291;1277;94388;-72
2022/07/19 04:43:41;;;;;;;7.30;4.30;;;;;;;20.47;58.78;100907.34;104239;1277;138242;-72
2022/07/19 04:46:09;;;;;;;8.20;4.30;;;;;;;20.44;59.01;100906.61;104331;1277;108662;-72
2022/07/19 04:48:37;;;;;;;9.10;4.40;;;;;;;20.41;59.26;100907.70;104341;1277;97755;-72
2022/07/19 04:51:05;;;;;;;8.40;3.80;;;;;;;20.42;58.95;100910.02;104208;1277;139624;-70
2022/07/19 04:53:33;;;;;;;7.90;4.10;;;;;;;20.36;59.56;100912.70;104263;1277;96502;-71
2022/07/19 04:56:06;;;;;;;7.70;4.10;;;;;;;20.34;59.74;100911.71;104234;1277;138975;-72
2022/07/19 04:58:34;;;;;;;7.40;4.10;;;;;;;20.36;60.09;100912.48;104249;1277;108347;-72
2022/07/19 05:01:02;;;;;;;9.20;4.10;;;;;;;20.40;60.40;100916.62;104273;1277;99430;-72
2022/07/19 05:03:30;;;;;;;9.50;4.60;;;;;;;20.43;60.09;100921.84;104112;1277;138368;-72
2022/07/19 05:05:58;;;;;;;9.00;4.30;;;;;;;20.47;58.85;100925.39;104244;1277;94144;-72
2022/07/19 05:08:26;;;;;;;8.70;4.10;;;;;;;20.50;59.54;100926.48;104153;1277;137763;-72
2022/07/19 05:10:54;;;;;;;8.20;4.30;;;;;;;20.46;59.83;100924.20;104284;1277;108452;-72
2022/07/19 05:13:22;;;;;;;8.00;4.30;;;;;;;20.48;59.91;100926.56;104206;1278;98336;-72
2022/07/19 05:15:50;;;;;;;9.30;4.50;;;;;;;20.52;60.01;100926.17;104272;1278;138719;-71
2022/07/19 05:18:18;;;;;;;12.30;8.20;;;;;;;20.54;59.96;100921.54;104310;1277;94228;-71
2022/07/19 05:20:46;;;;;;;9.40;5.20;;;;;;;20.53;60.19;100917.08;104231;1277;138660;-73
2022/07/19 05:23:13;;;;;;;8.30;4.60;;;;;;;20.56;60.27;100916.17;104305;1277;108506;-74
2022/07/19 05:25:42;;;;;;;8.00;4.20;;;;;;;20.60;60.67;100916.84;104172;1277;139456;-71
2022/07/19 05:28:09;;;;;;;8.20;4.60;;;;;;;20.63;60.71;100913.96;104254;1277;108858;-71
2022/07/19 05:30:37;;;;;;;8.50;4.60;;;;;;;20.64;60.78;100907.20;104323;1278;94928;-72
2022/07/19 05:33:06;;;;;;;8.60;4.30;;;;;;;20.61;59.97;100903.11;104235;1277;138377;-72
2022/07/19 05:35:34;;;;;;;9.40;4.60;;;;;;;20.62;59.89;100905.75;104329;1277;108440;-73
2022/07/19 05:38:02;;;;;;;9.20;4.60;;;;;;;20.69;59.75;100903.14;104148;1277;139168;-71
2022/07/19 05:40:30;;;;;;;8.50;4.40;;;;;;;20.75;59.29;100905.33;104199;1277;108888;-72
2022/07/19 05:42:58;;;;;;;11.40;4.60;;;;;;;20.78;59.65;100901.54;104251;1277;94657;-71
2022/07/19 05:45:27;;;;;;;11.20;4.90;;;;;;;20.83;59.61;100905.95;104162;1277;138025;-74
2022/07/19 05:47:55;;;;;;;9.30;4.70;;;;;;;20.89;59.84;100904.84;104328;1277;107673;-73
2022/07/19 05:50:23;;;;;;;8.70;4.80;;;;;;;20.95;59.43;100906.34;104180;1277;138864;-71
2022/07/19 05:52:51;;;;;;;9.60;4.60;;;;;;;20.89;59.56;100906.45;104215;1277;108861;-72
2022/07/19 05:55:18;;;;;;;9.90;4.80;;;;;;;20.91;60.02;100905.63;104254;1277;94701;-72
2022/07/19 05:57:46;;;;;;;8.60;4.70;;;;;;;20.97;59.28;100907.05;104186;1277;138857;-72
2022/07/19 06:00:14;;;;;;;9.60;4.70;;;;;;;20.97;59.50;100904.73;104210;1277;108318;-72
2022/07/19 06:02:42;;;;;;;8.80;5.10;;;;;;;20.98;59.93;100903.38;104060;1277;138576;-70
2022/07/19 06:05:10;;;;;;;10.80;5.00;;;;;;;21.05;59.81;100904.42;104235;1277;108743;-72
2022/07/19 06:07:38;;;;;;;10.20;4.80;;;;;;;21.11;59.57;100906.73;104198;1277;94527;-72
2022/07/19 06:10:07;;;;;;;9.30;4.60;;;;;;;21.14;59.45;100908.76;104243;1277;94334;-72
2022/07/19 06:12:35;;;;;;;8.40;4.20;;;;;;;21.16;60.28;100911.16;104209;1278;108535;-71
2022/07/19 06:15:04;;;;;;;8.20;4.40;;;;;;;21.17;60.59;100912.46;104108;1277;138135;-72
2022/07/19 06:17:35;;;;;;;8.30;4.60;;;;;;;21.22;60.54;100915.63;104232;1277;108934;-72
2022/07/19 06:20:05;;;;;;;9.80;5.00;;;;;;;21.29;59.56;100923.85;104211;1277;138654;-71
2022/07/19 06:22:32;;;;;;;9.50;4.90;;;;;;;21.32;59.22;100924.57;104227;1278;94837;-72
2022/07/19 06:25:00;;;;;;;8.80;4.70;;;;;;;21.30;59.04;100933.19;104259;1277;106284;-73
2022/07/19 06:27:28;;;;;;;9.90;4.70;;;;;;;21.29;58.91;100933.23;104124;1277;137873;-73
2022/07/19 06:29:56;;;;;;;8.80;4.30;;;;;;;21.26;59.79;100931.63;104222;1277;109002;-71
2022/07/19 06:32:24;;;;;;;11.90;4.60;;;;;;;21.29;59.89;100932.00;104099;1277;139410;-72
2022/07/19 06:34:52;;;;;;;11.80;4.80;;;;;;;21.41;58.43;100931.61;104247;1277;94423;-72
2022/07/19 06:37:20;;;;;;;11.00;4.60;;;;;;;21.52;56.61;100921.20;104246;1277;108326;-73
2022/07/19 06:39:48;;;;;;;12.60;5.10;;;;;;;21.60;55.98;100922.67;104137;1277;138443;-71
2022/07/19 06:42:16;;;;;;;8.60;4.20;;;;;;;21.65;55.33;100924.35;104334;1277;109776;-71
2022/07/19 06:44:44;;;;;;;10.60;4.80;;;;;;;21.66;55.70;100923.20;104237;1277;136904;-73
2022/07/19 06:47:12;;;;;;;11.20;4.60;;;;;;;21.70;55.06;100927.41;104356;1277;94747;-72
2022/07/19 06:49:41;;;;;;;10.20;4.80;;;;;;;21.71;55.31;100925.53;104187;1277;137865;-72
2022/07/19 06:52:09;;;;;;;12.80;5.40;;;;;;;21.71;55.10;100927.38;104515;1277;98494;-72
2022/07/19 06:54:41;;;;;;;13.50;4.70;;;;;;;21.68;55.04;100924.69;104262;1277;109369;-72
2022/07/19 06:57:09;;;;;;;11.50;4.80;;;;;;;21.65;54.98;100922.33;104248;1278;138772;-72
2022/07/19 06:59:37;;;;;;;9.20;4.60;;;;;;;21.65;56.25;100922.55;104514;1276;94607;-72
2022/07/19 07:02:05;;;;;;;9.20;4.40;;;;;;;21.67;55.78;100924.02;104236;1277;138433;-73
2022/07/19 07:04:33;;;;;;;10.40;4.40;;;;;;;21.66;56.12;100924.46;104391;1277;99400;-73
2022/07/19 07:07:13;;;;;;;9.40;4.20;;;;;;;21.63;57.06;100925.16;104384;1277;109140;-72
2022/07/19 07:09:42;;;;;;;13.30;4.60;;;;;;;21.68;57.04;100928.98;104170;1277;138758;-72
2022/07/19 07:12:09;;;;;;;9.50;4.80;;;;;;;21.80;56.72;100931.48;104341;1277;94350;-72
2022/07/19 07:14:37;;;;;;;10.80;4.50;;;;;;;21.92;56.15;100930.88;104167;1277;137935;-72
2022/07/19 07:17:06;;;;;;;9.60;4.90;;;;;;;22.08;55.69;100925.85;104386;1277;99610;-72
2022/07/19 07:19:34;;;;;;;10.00;4.30;;;;;;;22.21;54.91;100924.48;104414;1277;108819;-73
2022/07/19 07:22:02;;;;;;;10.90;5.20;;;;;;;22.32;54.86;100923.95;104242;1277;138063;-73
2022/07/19 07:24:30;;;;;;;11.50;4.80;;;;;;;22.42;54.71;100921.46;104323;1277;95511;-73
2022/07/19 07:26:58;;;;;;;9.60;4.90;;;;;;;22.47;54.03;100920.23;104314;1277;138595;-73
2022/07/19 07:29:26;;;;;;;10.50;4.50;;;;;;;22.55;54.84;100923.85;104402;1277;99981;-74
2022/07/19 07:31:54;;;;;;;9.20;4.20;;;;;;;22.62;54.90;100923.04;104276;1277;138126;-74
2022/07/19 07:34:22;;;;;;;9.30;4.50;;;;;;;22.62;52.96;100919.41;104398;1277;94350;-73
2022/07/19 07:36:50;;;;;;;8.60;4.00;;;;;;;22.64;52.89;100915.67;104391;1277;94494;-72
2022/07/19 07:39:18;;;;;;;10.80;4.40;;;;;;;22.64;52.84;100918.52;104204;1277;138383;-72
2022/07/19 07:41:46;;;;;;;18.80;12.50;;;;;;;22.63;52.82;100913.51;104359;1278;99390;-72
2022/07/19 07:44:24;;;;;;;14.20;6.70;;;;;;;22.64;54.18;100912.92;104192;1277;139703;-73
2022/07/19 07:46:52;;;;;;;8.70;4.30;;;;;;;22.67;54.02;100910.88;104326;1278;94338;-73
2022/07/19 07:49:20;;;;;;;8.60;4.20;;;;;;;22.70;52.62;100915.77;104328;1277;94764;-72
2022/07/19 07:51:48;;;;;;;10.60;4.00;;;;;;;22.72;52.36;100913.99;104242;1277;137771;-71
2022/07/19 07:54:16;;;;;;;7.80;3.80;;;;;;;22.73;53.15;100915.91;104341;1277;99680;-73
2022/07/19 07:56:44;;;;;;;9.10;4.50;;;;;;;22.71;53.32;100914.04;104233;1276;137986;-73
2022/07/19 07:59:13;;;;;;;9.20;4.00;;;;;;;22.75;52.45;100914.72;104366;1277;94415;-73
2022/07/19 08:01:43;;;;;;;11.90;4.60;;;;;;;22.77;52.71;100915.11;104195;1278;137968;-71
2022/07/19 08:04:11;;;;;;;12.00;4.40;;;;;;;22.81;53.29;100913.73;104373;1277;107847;-73
2022/07/19 08:06:40;;;;;;;11.20;4.60;;;;;;;22.86;54.73;100916.09;104281;1277;99424;-72
2022/07/19 08:09:08;;;;;;;11.70;5.60;;;;;;;22.89;54.86;100921.35;104098;1277;137738;-75
2022/07/19 08:11:36;;;;;;;11.10;4.60;;;;;;;22.98;54.11;100919.10;104322;1277;94329;-71
2022/07/19 08:14:04;;;;;;;9.30;4.50;;;;;;;22.98;54.72;100924.69;105492;1277;138008;-72
2022/07/19 08:16:33;;;;;;;11.20;4.20;;;;;;;23.04;54.80;100925.04;104313;1277;108659;-73
2022/07/19 08:19:01;;;;;;;9.60;4.30;;;;;;;23.13;54.42;100930.70;104311;1277;99254;-71
2022/07/19 08:21:29;;;;;;;10.90;4.50;;;;;;;23.23;53.47;100929.13;104180;1277;138196;-72
2022/07/19 08:23:57;;;;;;;9.50;4.20;;;;;;;23.32;53.16;100926.89;104281;1277;95617;-73
2022/07/19 08:26:25;;;;;;;9.50;4.50;;;;;;;23.36;53.34;100924.54;104122;1277;138389;-72
2022/07/19 08:28:52;;;;;;;9.80;4.50;;;;;;;23.42;52.71;100922.88;104312;1278;108743;-72
2022/07/19 08:31:21;;;;;;;9.80;4.70;;;;;;;23.47;52.00;100923.64;104277;1278;99470;-72
2022/07/19 08:33:50;;;;;;;9.80;4.20;;;;;;;23.47;51.35;100922.71;104316;1277;137982;-72
2022/07/19 08:36:18;;;;;;;10.60;5.00;;;;;;;23.50;50.38;100920.33;104307;1277;94433;-73
2022/07/19 08:38:46;;;;;;;8.40;4.70;;;;;;;23.54;49.86;100917.65;104293;1277;138799;-72
2022/07/19 08:41:15;;;;;;;11.30;6.60;;;;;;;23.59;50.53;100913.17;104192;1279;108309;-73
2022/07/19 08:43:43;;;;;;;11.80;7.40;;;;;;;23.65;50.21;100909.80;104270;1278;138749;-75
2022/07/19 08:46:11;;;;;;;12.10;6.10;;;;;;;23.67;50.64;100912.23;104339;1278;109861;-73
2022/07/19 08:48:39;;;;;;;10.70;5.40;;;;;;;23.75;49.39;100912.86;104311;1277;95070;-72
2022/07/19 08:51:19;;;;;;;11.70;6.20;;;;;;;23.90;49.19;100916.86;104201;1277;137996;-72
2022/07/19 08:53:51;;;;;;;14.70;10.30;;;;;;;24.06;50.71;100913.66;104308;1278;108551;-72
2022/07/19 08:59:06;;;;;;;9.80;5.50;;;;;;;24.51;48.57;100906.50;104401;1277;108743;-71
2022/07/19 09:01:36;;;;;;;7.90;4.00;;;;;;;24.65;48.09;100899.09;104278;1277;94991;-72
2022/07/19 09:04:14;;;;;;;10.30;4.30;;;;;;;24.84;47.30;100897.96;104975;1277;137554;-72
2022/07/19 09:06:43;;;;;;;9.20;3.90;;;;;;;25.09;47.07;100896.91;104368;1277;108526;-72
2022/07/19 09:09:13;;;;;;;10.60;4.50;;;;;;;25.27;47.00;100895.13;104246;1277;137901;-72
2022/07/19 09:11:50;;;;;;;9.30;4.30;;;;;;;25.38;46.75;100892.98;104231;1279;108716;-72
2022/07/19 09:14:30;;;;;;;8.70;4.30;;;;;;;25.56;46.15;100889.95;104151;1278;138628;-72
2022/07/19 09:17:12;;;;;;;10.40;4.20;;;;;;;25.82;45.35;100886.53;104356;1278;94287;-72
2022/07/19 09:19:43;;;;;;;11.30;4.10;;;;;;;26.01;45.17;100882.36;104250;1277;139108;-71
2022/07/19 09:22:12;;;;;;;13.50;5.10;;;;;;;26.19;45.11;100885.48;104639;1277;98933;-74
2022/07/19 09:24:53;;;;;;;9.20;5.40;;;;;;;26.26;45.51;100887.78;104327;1277;109124;-72
2022/07/19 09:27:25;;;;;;;11.90;6.20;;;;;;;26.52;42.65;100891.38;104320;1277;138414;-72
2022/07/19 09:29:55;;;;;;;8.30;4.40;;;;;;;26.69;42.64;100893.04;104388;1277;94401;-71
2022/07/19 09:32:25;;;;;;;12.40;7.10;;;;;;;26.97;41.25;100889.17;104193;1277;137914;-74
2022/07/19 09:35:01;;;;;;;7.30;3.30;;;;;;;27.20;40.85;100889.17;104398;1278;98863;-72
2022/07/19 09:37:32;;;;;;;8.50;3.70;;;;;;;27.87;40.26;100883.02;104176;1277;266218;-72
2022/07/19 09:40:03;;;;;;;6.50;3.30;;;;;;;28.99;39.49;100878.17;104429;1277;137968;-69
2022/07/19 09:42:43;;;;;;;9.50;5.80;;;;;;;30.17;36.30;100879.15;104259;1277;94538;-72
2022/07/19 09:45:13;;;;;;;7.90;3.70;;;;;;;31.35;34.40;100880.54;104226;1277;138806;-72
2022/07/19 09:47:44;;;;;;;7.80;2.90;;;;;;;32.52;32.83;100879.46;104630;1277;98041;-72
2022/07/19 09:50:19;;;;;;;6.30;2.50;;;;;;;33.50;31.32;100876.73;104204;1278;138094;-72
2022/07/19 09:52:49;;;;;;;6.60;2.60;;;;;;;34.51;29.73;100874.98;104274;1278;94414;-70
2022/07/19 09:55:18;;;;;;;6.10;2.40;;;;;;;35.30;28.43;100876.02;104618;1277;94498;-71
2022/07/19 09:57:50;;;;;;;5.60;2.60;;;;;;;36.08;27.81;100873.41;104154;1278;138324;-71
2022/07/19 10:00:21;;;;;;;5.70;2.40;;;;;;;36.62;26.42;100872.02;104368;1277;98886;-71
2022/07/19 10:02:57;;;;;;;6.00;2.70;;;;;;;37.23;25.71;100873.28;104227;1278;137667;-71
2022/07/19 10:05:27;;;;;;;6.40;2.60;;;;;;;37.86;24.95;100867.64;104778;1278;94373;-71
2022/07/19 10:07:55;;;;;;;8.10;2.30;;;;;;;38.30;23.47;100863.25;104281;1277;138036;-71
2022/07/19 10:10:24;;;;;;;6.90;3.00;;;;;;;38.54;22.17;100858.56;104309;1278;109272;-72
2022/07/19 10:12:53;;;;;;;12.70;9.50;;;;;;;38.62;22.12;100857.58;104370;1277;100479;-72
2022/07/19 10:15:21;;;;;;;6.30;2.30;;;;;;;38.80;21.19;100857.27;104202;1277;138543;-72
2022/07/19 10:18:10;;;;;;;14.20;10.30;;;;;;;38.94;21.53;100860.94;104321;1278;94349;-72
2022/07/19 10:20:41;;;;;;;6.00;2.70;;;;;;;39.45;21.26;100858.40;104292;1277;139137;-71
2022/07/19 10:23:09;;;;;;;5.50;2.30;;;;;;;39.87;21.58;100859.40;104348;1277;107365;-71
2022/07/19 10:25:43;;;;;;;6.80;4.00;;;;;;;40.28;21.06;100858.40;104345;1277;99547;-72
2022/07/19 10:28:27;;;;;;;5.50;2.30;;;;;;;40.77;20.92;100853.34;104328;1277;109276;-72
2022/07/19 10:31:35;;;;;;;6.20;2.80;;;;;;;41.14;20.59;100851.22;104372;1277;94312;-71
2022/07/19 10:34:06;;;;;;;6.70;2.50;;;;;;;41.25;19.75;100854.05;104177;1277;137679;-72
2022/07/19 10:36:40;;;;;;;5.40;2.60;;;;;;;41.47;19.84;100849.25;104430;1278;108420;-71
2022/07/19 10:39:35;;;;;;;6.10;2.60;;;;;;;41.57;19.40;100850.70;104259;1277;138104;-71
2022/07/19 10:42:22;;;;;;;9.80;7.30;;;;;;;41.56;19.08;100848.90;104321;1277;108808;-71
2022/07/19 10:45:04;;;;;;;11.90;9.50;;;;;;;41.80;18.76;100842.88;104248;1278;137908;-71
2022/07/19 10:47:34;;;;;;;5.50;2.70;;;;;;;41.79;19.32;100838.58;104034;1277;139616;-71
2022/07/19 10:50:05;;;;;;;5.70;2.50;;;;;;;42.09;19.13;100838.10;104235;1279;110068;-72
2022/07/19 10:52:38;;;;;;;6.80;2.90;;;;;;;42.30;18.59;100837.10;104121;1278;138536;-72
2022/07/19 10:55:16;;;;;;;7.90;5.10;;;;;;;42.22;18.64;100835.61;104357;1279;108769;-72
2022/07/19 10:57:45;;;;;;;5.80;3.20;;;;;;;42.13;18.46;100833.06;104183;1279;94452;-71
2022/07/19 11:00:22;;;;;;;6.70;3.40;;;;;;;42.06;18.71;100830.86;104281;1279;137735;-72
2022/07/19 11:02:52;;;;;;;8.40;4.20;;;;;;;41.68;18.58;100832.56;104267;1278;108522;-71
2022/07/19 11:05:24;;;;;;;6.20;3.00;;;;;;;41.52;18.49;100830.26;104141;1279;138310;-70
2022/07/19 11:07:54;;;;;;;6.20;2.80;;;;;;;40.95;19.11;100827.03;104228;1278;109343;-71
2022/07/19 11:10:29;;;;;;;11.80;8.40;;;;;;;39.76;20.17;100829.80;104377;1277;94535;-71
2022/07/19 11:12:58;;;;;;;6.60;4.30;;;;;;;38.59;21.07;100826.16;104234;1279;94302;-70
2022/07/19 11:15:27;;;;;;;6.40;2.90;;;;;;;37.69;22.31;100819.89;104220;1278;106668;-70
2022/07/19 11:18:07;;;;;;;6.40;2.70;;;;;;;36.87;22.41;100822.85;104164;1279;139351;-71
2022/07/19 11:20:36;;;;;;;6.10;3.40;;;;;;;36.17;24.20;100826.20;104249;1279;107773;-70
2022/07/19 11:23:04;;;;;;;7.80;3.10;;;;;;;35.68;25.11;100825.07;104202;1277;139060;-71